Airfield :
LOGIN :

Register | Disclaimer

   EN    FR    IT 

 










Legend :    VFR   Marginal VFR   IFR   Intensive IFR   Very Intensive IFR
Visi :
Ceiling :
>= 8 km
>= 3000ft
5 to 8 km
1000 to 3000 ft
1500m to 5 km
500 to 1000 ft
800 to 1500m
200 to 500 ft
< 800m
< 200 ft
Symbols :   Thunderstorms  Fog  Heavy snow  Heavy precipitations  Wind > 20 kt
SIGMETs :     Misc.  Thunderstorms  Icing  Turbulence  Mountain Waves  Volcanic Ashes






- Airport Elevation : 309 ft
- IATA code : FNI


LFTW - Nîmes Garons

CURRENT METAR :
  • 050830Z AUTO 26006KT CAVOK 05/02 Q1007 TEMPO 2000 BR

EXPIRED METARs :
  • 050800Z AUTO 27005KT CAVOK 04/02 Q1007 TEMPO 2000 BR
  • 050730Z AUTO 27005KT CAVOK 02/01 Q1007 TEMPO 2000 BR
  • 050700Z AUTO 27004KT CAVOK 01/M00 Q1007 TEMPO 2000 BR
  • 050630Z AUTO 28003KT CAVOK 02/00 Q1008 TEMPO 2000 BR
  • 050600Z AUTO VRB03KT CAVOK 02/M00 Q1008 TEMPO 2000 BR

TAF TAF LFTW
Valid from the 05 at 03:00 until the 06 at 03:00 UTC


050200Z 0503/0603 27005KT CAVOK
PROB30
TEMPO 0503/0510 2000 BR
PROB40
TEMPO 0512/0516 VRB10G20KT SHRA BKN050TCU



MET'MAP, your aeronautical weather chart ! - Copyright ORBIFLY December 2007 - Disclaimer

ORBIFLY MET'MAP TEAM :

Programming & Development : Alexandra Zaïnal
Concept & original design : Baudouin d'Aumeries
Assistance for programming : Marc-Olivier Méhu
Technical & hardware support : Manuel Goepfert

Contact : metmap@orbifly.com




SOURCES & CREDITS :

   NOAA